^^
Your Local Weather - Clay, NY Station Historical Data
Daily Summary for January 10, 2018 Units:  Metric    English   Both
« Previous Day
Next Day »
Daily Weekly Monthly Yearly Custom
  High: Low: Average:
Temperature: 4.9 °C -1.5 °C 4.1 °C
Dew Point: -0.3 °C -6.1 °C -1.1 °C
Humidity: 75% 62% 69%
Wind Speed: 9.7km/h 3.2km/h 6.8km/h
Wind Gust: 17.7km/h - -
Wind- - SSE
Pressure: 1027.3 hPa 1020.2 hPa -
Precipitation: 6.1 mm    
Historical Graphs
 
 
Tabular Data for January 10, 2018
Time Temperature Dew Point Pressure Wind Wind Speed Wind Gust Humidity Rainfall Rate (Hourly) solar
09:15 -1.5 °C -6.1 °C 1027.3 hPa SSE 3.2 km/h 8 km/h 71% 0 mm 241 W/m2
19:02 4.7 °C -2 °C 1021.2 hPa SSE 9.7 km/h 12.9 km/h 62% 0 mm 0 W/m2
19:08 4.6 °C -1.7 °C 1021.2 hPa SSE 9.7 km/h 12.9 km/h 64% 0 mm 0 W/m2
19:14 4.3 °C -1.3 °C 1020.9 hPa SE 8 km/h 9.7 km/h 67% 0 mm 0 W/m2
19:19 4.1 °C -0.9 °C 1020.9 hPa SE 8 km/h 17.7 km/h 70% 0 mm 0 W/m2
19:26 3.7 °C -0.7 °C 1020.9 hPa SE 8 km/h 17.7 km/h 73% 0 mm 0 W/m2
19:32 3.6 °C -0.4 °C 1021.2 hPa SE 6.4 km/h 6.4 km/h 75% 0 mm 0 W/m2
19:50 3.6 °C -0.4 °C 1020.9 hPa SSE 4.8 km/h 6.4 km/h 75% 0 mm 0 W/m2
19:56 3.6 °C -0.6 °C 1020.9 hPa SE 6.4 km/h 9.7 km/h 74% 0 mm 0 W/m2
20:04 3.8 °C -0.4 °C 1020.9 hPa SSE 8 km/h 9.7 km/h 74% 0 mm 0 W/m2
20:22 3.8 °C -0.8 °C 1020.9 hPa SE 9.7 km/h 11.3 km/h 72% 0 mm 0 W/m2
20:28 3.8 °C -0.8 °C 1020.9 hPa South 8 km/h 11.3 km/h 72% 0 mm 0 W/m2
21:06 4.2 °C -1.2 °C 1020.9 hPa SSE 8 km/h 11.3 km/h 68% 0 mm 0 W/m2
21:12 4.3 °C -1.1 °C 1020.5 hPa SSE 8 km/h 8 km/h 68% 0 mm 0 W/m2
21:18 4.1 °C -0.9 °C 1020.5 hPa East 4.8 km/h 8 km/h 70% 0 mm 0 W/m2
21:24 4 °C -0.8 °C 1020.5 hPa SSE 3.2 km/h 4.8 km/h 71% 0 mm 0 W/m2
21:30 4.1 °C -0.7 °C 1020.5 hPa SSE 4.8 km/h 4.8 km/h 71% 0 mm 0 W/m2
21:35 4.1 °C -0.9 °C 1020.9 hPa SSE 4.8 km/h 6.4 km/h 70% 0 mm 0 W/m2
21:42 4 °C -0.6 °C 1020.9 hPa East 4.8 km/h 4.8 km/h 72% 0 mm 0 W/m2
21:48 3.7 °C -0.3 °C 1020.5 hPa SE 3.2 km/h 4.8 km/h 75% 0 mm 0 W/m2
21:53 3.7 °C -0.5 °C 1020.2 hPa SSE 4.8 km/h 8 km/h 74% 0 mm 0 W/m2
21:59 3.9 °C -0.4 °C 1020.5 hPa SE 6.4 km/h 6.4 km/h 73% 0 mm 0 W/m2
22:06 4.1 °C -0.7 °C 1020.9 hPa SE 6.4 km/h 9.7 km/h 71% 0 mm 0 W/m2
22:12 4.6 °C -0.7 °C 1020.9 hPa South 8 km/h 8 km/h 69% 0 mm 0 W/m2
22:18 4.8 °C -0.8 °C 1020.5 hPa SSE 9.7 km/h 11.3 km/h 67% 0 mm 0 W/m2
22:32 4.9 °C -0.9 °C 1020.5 hPa SSE 9.7 km/h 9.7 km/h 66% 0 mm 0 W/m2
22:40 4.9 °C -0.9 °C 1020.5 hPa SE 9.7 km/h 9.7 km/h 66% 0 mm 0 W/m2
22:48 4.7 °C -1.1 °C 1020.5 hPa SE 9.7 km/h 11.3 km/h 66% 0 mm 0 W/m2
22:54 4.7 °C -1.1 °C 1020.5 hPa SSE 8 km/h 11.3 km/h 66% 0 mm 0 W/m2
23:02 4.6 °C -1.2 °C 1020.5 hPa SSE 6.4 km/h 8 km/h 66% 0 mm 0 W/m2
23:08 4.6 °C -1.3 °C 1020.5 hPa SSE 6.4 km/h 9.7 km/h 66% 0 mm 0 W/m2
23:15 4.4 °C -1.3 °C 1020.2 hPa SSE 4.8 km/h 6.4 km/h 66% 0 mm 0 W/m2
23:22 4.5 °C -1.3 °C 1020.5 hPa SSE 6.4 km/h 8 km/h 66% 0 mm 0 W/m2
23:28 4.6 °C -1.3 °C 1020.2 hPa SSE 6.4 km/h 11.3 km/h 66% 0 mm 0 W/m2
23:34 4.6 °C -1.3 °C 1020.2 hPa ESE 6.4 km/h 6.4 km/h 66% 0 mm 0 W/m2
23:39 4.6 °C -1.1 °C 1020.5 hPa South 4.8 km/h 4.8 km/h 67% 0 mm 0 W/m2
23:46 4.6 °C -1.1 °C 1020.5 hPa SSW 4.8 km/h 4.8 km/h 67% 0 mm 0 W/m2
23:52 4.7 °C -0.9 °C 1020.5 hPa SSE 4.8 km/h 6.4 km/h 67% 0 mm 0 W/m2
23:58 4.7 °C -0.9 °C 1020.5 hPa South 4.8 km/h 6.4 km/h 67% 0 mm 0 W/m2
Country Meadow, Clay, NY, USA
Compliments of Weather Underground - 2 mb